createdAt,value
2018-09-15T00:01:31.052Z,14.50
2018-09-15T00:04:00.032Z,16.30
2018-09-15T00:06:28.981Z,12.90
2018-09-15T00:08:58.029Z,13.93
2018-09-15T00:11:26.941Z,11.40
2018-09-15T00:13:55.873Z,12.10
2018-09-15T00:16:24.786Z,11.60
2018-09-15T00:18:53.687Z,16.60
2018-09-15T00:21:22.972Z,13.03
2018-09-15T00:23:51.989Z,14.13
2018-09-15T00:26:20.911Z,14.37
2018-09-15T00:28:49.957Z,16.77
2018-09-15T00:31:18.872Z,12.10
2018-09-15T00:33:47.835Z,21.27
2018-09-15T00:36:16.811Z,14.30
2018-09-15T00:38:45.756Z,20.03
2018-09-15T00:41:14.686Z,13.43
2018-09-15T00:43:43.605Z,16.43
2018-09-15T00:46:12.523Z,14.93
2018-09-15T00:48:41.719Z,14.57
2018-09-15T00:51:10.756Z,15.87
2018-09-15T00:53:39.649Z,17.90
2018-09-15T00:56:08.564Z,15.00
2018-09-15T00:58:37.581Z,14.83
2018-09-15T01:01:06.721Z,16.37
2018-09-15T01:03:35.615Z,15.50
2018-09-15T01:06:04.620Z,17.27
2018-09-15T01:08:33.645Z,14.17
2018-09-15T01:11:02.676Z,18.67
2018-09-15T01:13:31.565Z,15.43
2018-09-15T01:16:00.460Z,14.43
2018-09-15T01:18:29.347Z,19.17
2018-09-15T01:20:58.380Z,17.53
2018-09-15T01:23:27.315Z,17.13
2018-09-15T01:25:56.238Z,17.87
2018-09-15T01:28:25.152Z,18.00
2018-09-15T01:30:54.055Z,16.70
2018-09-15T01:33:22.960Z,18.43
2018-09-15T01:35:51.844Z,18.40
2018-09-15T01:38:27.038Z,18.43
2018-09-15T01:40:55.936Z,15.57
2018-09-15T01:43:24.875Z,18.43
2018-09-15T01:45:53.878Z,20.20
2018-09-15T01:48:22.840Z,21.20
2018-09-15T01:50:51.732Z,21.63
2018-09-15T01:53:20.675Z,16.73
2018-09-15T01:55:50.091Z,25.27
2018-09-15T01:58:18.978Z,25.13
2018-09-15T02:00:48.100Z,22.73
2018-09-15T02:03:17.103Z,23.03
2018-09-15T02:05:46.134Z,25.80
2018-09-15T02:08:15.107Z,23.63
2018-09-15T02:10:44.030Z,22.83
2018-09-15T02:13:12.989Z,27.07
2018-09-15T02:15:41.968Z,22.47
2018-09-15T02:18:10.882Z,18.77
2018-09-15T02:20:39.867Z,25.87
2018-09-15T02:23:08.924Z,22.10
2018-09-15T02:25:37.822Z,19.33
2018-09-15T02:28:06.856Z,23.70
2018-09-15T02:30:35.764Z,21.37
2018-09-15T02:33:04.678Z,23.10
2018-09-15T02:35:33.601Z,23.20
2018-09-15T02:38:02.552Z,27.90
2018-09-15T02:40:31.472Z,23.43
2018-09-15T02:43:00.450Z,26.40
2018-09-15T02:45:29.449Z,28.23
2018-09-15T02:47:58.375Z,27.60
2018-09-15T02:50:27.290Z,24.50
2018-09-15T02:52:56.185Z,26.03
2018-09-15T02:55:25.110Z,25.40
2018-09-15T02:57:54.058Z,28.13
2018-09-15T03:00:23.104Z,25.37
2018-09-15T03:02:52.124Z,31.23
2018-09-15T03:05:21.149Z,29.83
2018-09-15T03:07:50.057Z,27.93
2018-09-15T03:10:18.992Z,29.10
2018-09-15T03:12:47.918Z,27.47
2018-09-15T03:15:16.887Z,23.23
2018-09-15T03:17:45.899Z,28.33
2018-09-15T03:20:14.809Z,28.20
2018-09-15T03:22:43.838Z,24.43
2018-09-15T03:25:12.895Z,25.90
2018-09-15T03:27:41.820Z,27.07
2018-09-15T03:30:10.744Z,28.00
2018-09-15T03:32:39.681Z,21.73
2018-09-15T03:35:08.660Z,23.93
2018-09-15T03:37:37.735Z,24.40
2018-09-15T03:40:06.723Z,20.53
2018-09-15T03:42:35.613Z,18.73
2018-09-15T03:45:04.662Z,27.20
2018-09-15T03:47:33.549Z,22.90
2018-09-15T03:50:02.558Z,24.70
2018-09-15T03:52:31.474Z,18.13
2018-09-15T03:55:00.373Z,22.87
2018-09-15T03:57:29.274Z,22.87
2018-09-15T03:59:58.199Z,25.13
2018-09-15T04:02:27.068Z,23.63
2018-09-15T04:04:56.235Z,23.03
2018-09-15T04:07:25.125Z,23.60
2018-09-15T04:09:54.037Z,22.20
2018-09-15T04:12:22.921Z,19.53
2018-09-15T04:14:51.824Z,21.77
2018-09-15T04:17:20.708Z,26.60
2018-09-15T04:19:49.634Z,22.23
2018-09-15T04:22:18.520Z,23.33
2018-09-15T04:24:47.484Z,26.30
2018-09-15T04:27:16.405Z,30.80
2018-09-15T04:29:45.283Z,26.33
2018-09-15T04:32:14.173Z,26.37
2018-09-15T04:34:43.088Z,27.57
2018-09-15T04:37:12.001Z,24.97
2018-09-15T04:39:40.955Z,29.67
2018-09-15T04:42:09.857Z,24.37
2018-09-15T04:44:38.766Z,24.10
2018-09-15T04:47:07.708Z,28.33
2018-09-15T04:49:36.631Z,24.07
2018-09-15T04:52:05.531Z,30.53
2018-09-15T04:54:34.464Z,29.43
2018-09-15T04:57:03.405Z,29.73
2018-09-15T04:59:32.312Z,26.83
2018-09-15T05:02:01.228Z,30.87
2018-09-15T05:04:30.105Z,31.27
2018-09-15T05:06:59.112Z,27.20
2018-09-15T05:09:28.025Z,24.97
2018-09-15T05:11:56.945Z,27.57
2018-09-15T05:14:25.859Z,23.93
2018-09-15T05:16:54.736Z,22.43
2018-09-15T05:19:23.622Z,26.30
2018-09-15T05:21:52.566Z,21.63
2018-09-15T05:24:21.474Z,21.97
2018-09-15T05:26:50.460Z,24.53
2018-09-15T05:29:19.351Z,26.50
2018-09-15T05:31:48.257Z,20.67
2018-09-15T05:34:17.239Z,22.13
2018-09-15T05:36:46.234Z,20.67
2018-09-15T05:39:15.124Z,21.73
2018-09-15T05:41:44.293Z,22.57
2018-09-15T05:44:13.224Z,26.37
2018-09-15T05:46:42.186Z,24.17
2018-09-15T05:49:11.223Z,24.07
2018-09-15T05:51:40.108Z,23.33
2018-09-15T05:54:09.110Z,22.10
2018-09-15T05:56:38.060Z,21.67
2018-09-15T05:59:07.637Z,25.03
2018-09-15T06:01:36.598Z,23.80
2018-09-15T06:04:05.501Z,23.77
2018-09-15T06:06:34.467Z,21.67
2018-09-15T06:09:04.972Z,22.70
2018-09-15T06:11:33.887Z,21.03
2018-09-15T06:14:02.789Z,19.90
2018-09-15T06:16:31.691Z,19.60
2018-09-15T06:19:00.643Z,22.33
2018-09-15T06:21:29.559Z,21.23
2018-09-15T06:23:58.457Z,19.60
2018-09-15T06:26:27.579Z,17.80
2018-09-15T06:28:56.639Z,19.40
2018-09-15T06:31:25.627Z,17.70
2018-09-15T06:33:54.553Z,18.90
2018-09-15T06:36:23.519Z,19.50
2018-09-15T06:38:52.381Z,15.17
2018-09-15T06:41:21.280Z,13.60
2018-09-15T06:43:50.371Z,15.40
2018-09-15T06:46:19.260Z,15.33
2018-09-15T06:48:48.140Z,13.50
2018-09-15T06:51:17.090Z,12.13
2018-09-15T06:53:46.073Z,12.47
2018-09-15T06:56:15.121Z,13.47
2018-09-15T06:58:43.996Z,11.57
2018-09-15T07:01:12.889Z,13.17
2018-09-15T07:03:41.770Z,13.10
2018-09-15T07:06:10.652Z,10.03
2018-09-15T07:08:39.585Z,11.10
2018-09-15T07:11:08.636Z,15.93
2018-09-15T07:13:37.543Z,14.40
2018-09-15T07:16:06.528Z,9.70
2018-09-15T07:18:35.482Z,9.07
2018-09-15T07:21:04.618Z,8.40
2018-09-15T07:23:33.557Z,13.67
2018-09-15T07:26:02.544Z,8.87
2018-09-15T07:28:31.574Z,10.77
2018-09-15T07:31:00.466Z,11.47
2018-09-15T07:33:29.501Z,12.33
2018-09-15T07:35:58.410Z,9.57
2018-09-15T07:38:27.282Z,12.17
2018-09-15T07:40:56.171Z,12.43
2018-09-15T07:43:25.094Z,13.87
2018-09-15T07:45:53.981Z,12.03
2018-09-15T07:48:22.949Z,11.93
2018-09-15T07:50:51.840Z,12.10
2018-09-15T07:53:20.733Z,10.90
2018-09-15T07:55:49.621Z,12.07
2018-09-15T07:58:18.512Z,10.73
2018-09-15T08:00:47.372Z,14.00
2018-09-15T08:03:16.370Z,11.43
2018-09-15T08:05:45.285Z,12.57
2018-09-15T08:08:14.184Z,11.83
2018-09-15T08:10:43.159Z,9.23
2018-09-15T08:13:12.052Z,11.30
2018-09-15T08:15:40.945Z,9.93
2018-09-15T08:18:10.077Z,11.17
2018-09-15T08:20:39.399Z,10.80
2018-09-15T08:23:08.467Z,10.27
2018-09-15T08:25:38.860Z,11.73
2018-09-15T08:28:08.765Z,13.40
2018-09-15T08:30:38.173Z,12.20
2018-09-15T08:33:08.468Z,14.70
2018-09-15T08:35:39.118Z,15.67
2018-09-15T08:38:08.111Z,10.77
2018-09-15T08:40:39.281Z,10.90
2018-09-15T08:43:09.443Z,11.73
2018-09-15T08:45:40.110Z,8.80
2018-09-15T08:48:10.269Z,10.53
2018-09-15T08:50:39.579Z,8.07
2018-09-15T08:53:08.432Z,9.07
2018-09-15T08:55:37.692Z,8.30
2018-09-15T08:58:06.724Z,8.90
2018-09-15T09:00:36.063Z,9.07
2018-09-15T09:03:04.974Z,10.60
2018-09-15T09:05:33.836Z,7.27
2018-09-15T09:08:03.649Z,7.73
2018-09-15T09:10:39.116Z,10.37
2018-09-15T09:13:09.143Z,7.73
2018-09-15T09:15:39.608Z,8.93
2018-09-15T09:18:09.325Z,11.93
2018-09-15T09:20:40.558Z,7.33
2018-09-15T09:23:09.725Z,9.13
2018-09-15T09:25:38.750Z,9.40
2018-09-15T09:28:07.880Z,11.83
2018-09-15T09:30:37.201Z,9.50
2018-09-15T09:33:06.100Z,10.73
2018-09-15T09:35:35.504Z,7.07
2018-09-15T09:38:04.463Z,9.07
2018-09-15T09:40:33.339Z,8.83
2018-09-15T09:43:02.228Z,8.83
2018-09-15T09:45:31.124Z,8.53
2018-09-15T09:48:00.061Z,6.77
2018-09-15T09:50:28.913Z,7.20
2018-09-15T09:52:57.816Z,9.63
2018-09-15T09:55:26.856Z,8.33
2018-09-15T09:57:55.740Z,7.30
2018-09-15T10:00:29.888Z,9.07
2018-09-15T10:02:58.768Z,9.20
2018-09-15T10:05:28.067Z,6.27
2018-09-15T10:07:56.960Z,6.50
2018-09-15T10:10:25.887Z,8.40
2018-09-15T10:12:54.895Z,7.40
2018-09-15T10:15:23.864Z,8.47
2018-09-15T10:17:52.757Z,8.63
2018-09-15T10:20:21.657Z,9.40
2018-09-15T10:22:50.530Z,5.40
2018-09-15T10:25:19.407Z,11.40
2018-09-15T10:27:48.278Z,10.07
2018-09-15T10:30:17.170Z,5.20
2018-09-15T10:32:46.064Z,6.20
2018-09-15T10:35:15.096Z,5.97
2018-09-15T10:37:43.977Z,7.37
2018-09-15T10:40:14.275Z,7.90
2018-09-15T10:42:43.274Z,6.00
2018-09-15T10:45:13.723Z,4.70
2018-09-15T10:47:44.207Z,7.10
2018-09-15T10:50:14.087Z,6.37
2018-09-15T10:52:43.015Z,7.83
2018-09-15T10:55:13.352Z,7.33
2018-09-15T10:57:44.404Z,7.30
2018-09-15T11:00:15.212Z,5.37
2018-09-15T11:02:44.712Z,7.43
2018-09-15T11:05:13.706Z,5.23
2018-09-15T11:07:42.563Z,5.50
2018-09-15T11:10:13.140Z,6.40
2018-09-15T11:12:43.317Z,5.17
2018-09-15T11:15:12.359Z,5.30
2018-09-15T11:17:43.482Z,6.03
2018-09-15T11:20:13.979Z,9.27
2018-09-15T11:22:44.391Z,7.20
2018-09-15T11:25:15.448Z,4.97
2018-09-15T11:27:46.197Z,5.00
2018-09-15T11:30:16.675Z,5.90
2018-09-15T11:32:45.966Z,5.07
2018-09-15T11:35:16.424Z,5.37
2018-09-15T11:37:52.671Z,4.63
2018-09-15T11:40:22.054Z,7.70
2018-09-15T11:42:51.027Z,7.23
2018-09-15T11:45:19.903Z,4.00
2018-09-15T11:47:51.040Z,6.37
2018-09-15T11:50:20.307Z,3.67
2018-09-15T11:52:49.281Z,4.63
2018-09-15T11:55:18.413Z,8.77
2018-09-15T11:57:47.304Z,6.43
2018-09-15T12:00:20.011Z,3.30
2018-09-15T12:02:49.802Z,3.80
2018-09-15T12:05:18.928Z,6.87
2018-09-15T12:07:47.910Z,5.33
2018-09-15T12:10:16.812Z,7.83
2018-09-15T12:12:45.691Z,3.97
2018-09-15T12:15:15.115Z,3.87
2018-09-15T12:17:44.014Z,8.70
2018-09-15T12:20:13.035Z,3.10
2018-09-15T12:22:41.951Z,9.03
2018-09-15T12:25:11.167Z,5.27
2018-09-15T12:27:40.140Z,6.97
2018-09-15T12:30:09.259Z,5.63
2018-09-15T12:32:38.158Z,11.60
2018-09-15T12:35:07.100Z,4.13
2018-09-15T12:37:36.302Z,5.07
2018-09-15T12:40:05.336Z,3.67
2018-09-15T12:42:34.346Z,10.10
2018-09-15T12:45:03.443Z,4.23
2018-09-15T12:47:32.507Z,4.27
2018-09-15T12:50:01.589Z,7.13
2018-09-15T12:52:30.542Z,5.17
2018-09-15T12:54:59.864Z,6.47
2018-09-15T12:57:28.760Z,5.63
2018-09-15T12:59:57.648Z,5.17
2018-09-15T13:02:27.481Z,4.00
2018-09-15T13:04:56.408Z,5.00
2018-09-15T13:07:25.338Z,5.60
2018-09-15T13:09:54.261Z,6.50
2018-09-15T13:12:23.168Z,3.17
2018-09-15T13:14:52.096Z,4.83
2018-09-15T13:17:21.059Z,4.47
2018-09-15T13:19:49.964Z,5.87
2018-09-15T13:22:18.868Z,4.87
2018-09-15T13:24:48.117Z,4.60
2018-09-15T13:27:17.143Z,3.73
2018-09-15T13:29:46.136Z,6.90
2018-09-15T13:32:14.999Z,4.17
2018-09-15T13:34:43.924Z,4.27
2018-09-15T13:37:12.878Z,7.53
2018-09-15T13:39:41.840Z,3.90
2018-09-15T13:42:10.956Z,4.07
2018-09-15T13:44:39.874Z,6.43
2018-09-15T13:47:08.800Z,6.03
2018-09-15T13:49:37.683Z,6.73
2018-09-15T13:52:06.631Z,6.43
2018-09-15T13:54:35.605Z,4.73
2018-09-15T13:57:04.604Z,3.80
2018-09-15T13:59:33.507Z,6.67
2018-09-15T14:02:02.467Z,4.87
2018-09-15T14:04:31.400Z,4.60
2018-09-15T14:07:00.350Z,6.30
2018-09-15T14:09:29.273Z,3.53
2018-09-15T14:11:58.167Z,4.20
2018-09-15T14:14:27.044Z,2.87
2018-09-15T14:16:56.127Z,3.23
2018-09-15T14:19:24.971Z,4.40
2018-09-15T14:21:53.867Z,3.80
2018-09-15T14:24:22.840Z,2.83
2018-09-15T14:26:52.141Z,4.77
2018-09-15T14:29:22.141Z,2.97
2018-09-15T14:31:51.111Z,4.30
2018-09-15T14:34:19.979Z,3.80
2018-09-15T14:36:48.856Z,3.20
2018-09-15T14:39:17.835Z,3.60
2018-09-15T14:41:46.727Z,3.33
2018-09-15T14:44:15.684Z,4.43
2018-09-15T14:46:44.849Z,5.97
2018-09-15T14:49:13.809Z,2.83
2018-09-15T14:51:42.733Z,4.80
2018-09-15T14:54:11.648Z,3.20
2018-09-15T14:56:40.601Z,2.63
2018-09-15T14:59:09.473Z,2.97
2018-09-15T15:01:38.600Z,3.63
2018-09-15T15:04:07.596Z,4.17
2018-09-15T15:06:36.484Z,3.83
2018-09-15T15:09:06.753Z,2.87
2018-09-15T15:11:34.614Z,2.87
2018-09-15T15:14:04.082Z,3.33
2018-09-15T15:16:33.192Z,3.83
2018-09-15T15:19:02.208Z,4.73
2018-09-15T15:21:31.196Z,3.00
2018-09-15T15:24:00.075Z,2.83
2018-09-15T15:26:29.049Z,3.77
2018-09-15T15:28:57.960Z,3.07
2018-09-15T15:31:27.053Z,2.77
2018-09-15T15:33:57.662Z,5.37
2018-09-15T15:36:32.203Z,3.10
2018-09-15T15:39:01.193Z,2.90
2018-09-15T15:41:30.071Z,2.80
2018-09-15T15:43:59.076Z,4.67
2018-09-15T15:46:28.100Z,3.30
2018-09-15T15:48:58.020Z,4.00
2018-09-15T15:51:27.543Z,4.77
2018-09-15T15:53:57.467Z,2.40
2018-09-15T15:56:27.657Z,3.40
2018-09-15T15:58:57.488Z,2.87
2018-09-15T16:01:26.436Z,2.33
2018-09-15T16:03:55.382Z,2.50
2018-09-15T16:06:26.221Z,3.70
2018-09-15T16:08:55.312Z,2.53
2018-09-15T16:11:24.243Z,3.50
2018-09-15T16:13:53.847Z,4.70
2018-09-15T16:16:24.238Z,4.83
2018-09-15T16:18:54.296Z,5.37
2018-09-15T16:21:25.940Z,4.10
2018-09-15T16:23:56.178Z,4.03
2018-09-15T16:26:25.877Z,5.90
2018-09-15T16:28:56.494Z,4.60
2018-09-15T16:31:27.220Z,3.03
2018-09-15T16:33:56.260Z,3.47
2018-09-15T16:36:25.328Z,3.30
2018-09-15T16:38:54.272Z,2.70
2018-09-15T16:41:23.848Z,3.10
2018-09-15T16:43:52.781Z,5.33
2018-09-15T16:46:22.195Z,3.07
2018-09-15T16:48:51.532Z,2.93
2018-09-15T16:51:20.592Z,5.97
2018-09-15T16:53:49.611Z,4.10
2018-09-15T16:56:18.540Z,4.90
2018-09-15T16:58:48.580Z,3.33
2018-09-15T17:01:17.574Z,3.43
2018-09-15T17:03:48.725Z,2.60
2018-09-15T17:06:19.696Z,3.67
2018-09-15T17:08:48.725Z,14.23
2018-09-15T17:11:17.622Z,3.00
2018-09-15T17:13:46.577Z,7.30
2018-09-15T17:16:15.515Z,5.07
2018-09-15T17:18:46.066Z,5.80
2018-09-15T17:21:15.148Z,10.80
2018-09-15T17:23:44.047Z,8.40
2018-09-15T17:26:12.944Z,4.93
2018-09-15T17:28:41.852Z,4.97
2018-09-15T17:31:11.139Z,5.07
2018-09-15T17:33:40.258Z,3.70
2018-09-15T17:36:09.182Z,3.93
2018-09-15T17:38:38.060Z,6.30
2018-09-15T17:41:07.032Z,3.70
2018-09-15T17:43:36.204Z,6.57
2018-09-15T17:46:05.164Z,3.80
2018-09-15T17:48:34.119Z,10.77
2018-09-15T17:51:03.052Z,4.37
2018-09-15T17:53:32.271Z,4.63
2018-09-15T17:56:01.179Z,5.47
2018-09-15T17:58:30.223Z,5.97
2018-09-15T18:00:59.165Z,5.33
2018-09-15T18:03:28.173Z,4.33
2018-09-15T18:05:57.025Z,5.13
2018-09-15T18:08:25.954Z,4.53
2018-09-15T18:10:55.137Z,4.83
2018-09-15T18:13:24.045Z,4.17
2018-09-15T18:15:52.960Z,5.17
2018-09-15T18:18:21.878Z,9.93
2018-09-15T18:20:50.917Z,5.27
2018-09-15T18:23:19.882Z,5.10
2018-09-15T18:25:50.014Z,7.23
2018-09-15T18:28:18.966Z,4.57
2018-09-15T18:30:47.884Z,7.77
2018-09-15T18:33:16.744Z,4.27
2018-09-15T18:35:45.880Z,4.10
2018-09-15T18:38:14.946Z,3.83
2018-09-15T18:40:44.147Z,7.57
2018-09-15T18:43:13.407Z,6.27
2018-09-15T18:45:42.447Z,3.70
2018-09-15T18:48:11.469Z,4.17
2018-09-15T18:50:40.581Z,7.90
2018-09-15T18:53:09.641Z,3.97
2018-09-15T18:55:38.883Z,5.17
2018-09-15T18:58:08.090Z,5.57
2018-09-15T19:00:37.199Z,4.77
2018-09-15T19:03:06.410Z,3.87
2018-09-15T19:05:35.481Z,6.87
2018-09-15T19:08:04.674Z,5.60
2018-09-15T19:10:33.744Z,2.73
2018-09-15T19:13:02.832Z,3.40
2018-09-15T19:15:31.883Z,3.73
2018-09-15T19:18:01.025Z,5.37
2018-09-15T19:20:30.325Z,4.90
2018-09-15T19:22:59.358Z,3.07
2018-09-15T19:25:28.617Z,4.17
2018-09-15T19:27:57.901Z,5.63
2018-09-15T19:30:27.077Z,7.00
2018-09-15T19:32:56.044Z,7.03
2018-09-15T19:35:25.538Z,5.23
2018-09-15T19:37:54.813Z,3.70
2018-09-15T19:40:23.875Z,4.23
2018-09-15T19:42:54.036Z,7.47
2018-09-15T19:45:24.797Z,3.90
2018-09-15T19:47:54.003Z,5.43
2018-09-15T19:50:23.255Z,4.97
2018-09-15T19:52:52.532Z,4.43
2018-09-15T19:55:21.865Z,3.50
2018-09-15T19:57:51.117Z,6.43
2018-09-15T20:00:20.322Z,5.23
2018-09-15T20:02:49.498Z,4.87
2018-09-15T20:05:18.819Z,7.20
2018-09-15T20:07:47.893Z,4.27
2018-09-15T20:10:17.093Z,4.40
2018-09-15T20:12:46.375Z,5.60
2018-09-15T20:15:28.655Z,6.40
2018-09-15T20:17:56.696Z,4.43
2018-09-15T20:20:24.599Z,5.87
2018-09-15T20:22:55.448Z,6.93
2018-09-15T20:25:24.451Z,5.53
2018-09-15T20:27:53.471Z,4.60
2018-09-15T20:30:22.504Z,4.70
2018-09-15T20:32:51.510Z,6.07
2018-09-15T20:35:20.516Z,5.33
2018-09-15T20:37:49.481Z,6.77
2018-09-15T20:40:18.418Z,7.17
2018-09-15T20:42:47.291Z,6.27
2018-09-15T20:45:16.197Z,10.80
2018-09-15T20:47:45.102Z,7.47
2018-09-15T20:50:14.112Z,6.43
2018-09-15T20:52:42.999Z,5.57
2018-09-15T20:55:11.893Z,8.53
2018-09-15T20:57:40.801Z,5.90
2018-09-15T21:00:10.640Z,6.07
2018-09-15T21:02:39.725Z,4.87
2018-09-15T21:05:08.643Z,8.10
2018-09-15T21:07:37.528Z,7.00
2018-09-15T21:10:06.903Z,9.90
2018-09-15T21:12:36.107Z,5.70
2018-09-15T21:15:05.212Z,7.93
2018-09-15T21:17:34.484Z,4.67
2018-09-15T21:20:03.725Z,5.80
2018-09-15T21:22:32.950Z,5.40
2018-09-15T21:25:02.150Z,7.43
2018-09-15T21:27:31.402Z,5.83
2018-09-15T21:30:00.326Z,5.77
2018-09-15T21:32:29.237Z,6.67
2018-09-15T21:34:58.558Z,6.57
2018-09-15T21:37:27.831Z,5.20
2018-09-15T21:39:57.220Z,5.50
2018-09-15T21:42:26.856Z,9.13
2018-09-15T21:44:56.157Z,5.57
2018-09-15T21:47:25.039Z,10.23
2018-09-15T21:49:53.986Z,5.33
2018-09-15T21:52:22.939Z,6.63
2018-09-15T21:54:51.811Z,5.53
2018-09-15T21:57:20.863Z,5.87
2018-09-15T21:59:50.037Z,9.80
2018-09-15T22:02:22.317Z,5.90
2018-09-15T22:04:52.033Z,6.70
2018-09-15T22:07:21.352Z,5.90
2018-09-15T22:09:50.620Z,9.93
2018-09-15T22:12:19.799Z,6.00
2018-09-15T22:14:49.080Z,6.30
2018-09-15T22:17:18.372Z,8.57
2018-09-15T22:19:47.783Z,5.90
2018-09-15T22:22:17.282Z,7.03
2018-09-15T22:24:46.492Z,5.10
2018-09-15T22:27:15.705Z,6.00
2018-09-15T22:29:44.588Z,4.87
2018-09-15T22:32:13.467Z,5.83
2018-09-15T22:34:42.366Z,4.23
2018-09-15T22:37:11.262Z,5.63
2018-09-15T22:39:40.137Z,4.90
2018-09-15T22:42:09.079Z,6.93
2018-09-15T22:44:38.479Z,6.13
2018-09-15T22:47:07.787Z,5.50
2018-09-15T22:49:37.080Z,5.80
2018-09-15T22:52:06.291Z,5.20
2018-09-15T22:54:35.650Z,5.13
2018-09-15T22:57:05.132Z,5.83
2018-09-15T22:59:34.492Z,6.33
2018-09-15T23:02:03.785Z,7.10
2018-09-15T23:04:32.952Z,6.53
2018-09-15T23:07:01.839Z,6.13
2018-09-15T23:09:30.716Z,6.90
2018-09-15T23:11:59.573Z,5.37
2018-09-15T23:14:28.461Z,5.87
2018-09-15T23:16:57.340Z,6.60
2018-09-15T23:19:26.207Z,7.70
2018-09-15T23:21:55.188Z,6.90
2018-09-15T23:24:24.052Z,5.40
2018-09-15T23:26:52.916Z,7.07
2018-09-15T23:29:21.804Z,6.83
2018-09-15T23:31:51.104Z,5.67
2018-09-15T23:34:20.468Z,10.30
2018-09-15T23:36:49.990Z,6.80
2018-09-15T23:39:19.265Z,8.23
2018-09-15T23:41:48.787Z,6.60
2018-09-15T23:44:18.076Z,6.03
2018-09-15T23:46:47.423Z,5.73
2018-09-15T23:49:16.307Z,5.87
2018-09-15T23:51:45.204Z,6.93
2018-09-15T23:54:14.111Z,5.50
2018-09-15T23:56:42.985Z,8.40
2018-09-15T23:59:11.856Z,8.07
